Time,TemperatureF,DewpointF,PressureIn,WindDirection,WindDirectionDegrees,WindSpeedMPH,WindSpeedGustMPH,Humidity,HourlyPrecipIn,Conditions,Clouds,dailyrainin,SoftwareType,DateUTC
2013-05-26 00:00:00,45.2,36.0,30.23,ENE,63,0.0,0.0,70,0.00,,,0.00,Wunderground v.1.15,2013-05-26 04:00:00,
2013-05-26 00:05:00,44.9,35.0,30.23,ENE,63,0.0,0.0,68,0.00,,,0.00,Wunderground v.1.15,2013-05-26 04:05:00,
2013-05-26 00:09:00,44.8,36.0,30.23,ENE,63,0.0,0.0,71,0.00,,,0.00,Wunderground v.1.15,2013-05-26 04:09:00,
2013-05-26 00:15:00,44.6,36.1,30.23,ENE,63,0.0,0.0,72,0.00,,,0.00,Wunderground v.1.15,2013-05-26 04:15:00,
2013-05-26 00:19:00,44.6,36.1,30.23,ENE,63,0.0,0.0,72,0.00,,,0.00,Wunderground v.1.15,2013-05-26 04:19:00,
2013-05-26 00:24:00,44.5,36.0,30.23,ENE,63,0.0,0.0,72,0.00,,,0.00,Wunderground v.1.15,2013-05-26 04:24:00,
2013-05-26 00:30:00,44.3,36.2,30.23,ENE,63,0.0,0.0,73,0.00,,,0.00,Wunderground v.1.15,2013-05-26 04:30:00,
2013-05-26 00:40:00,43.9,36.1,30.23,ENE,63,0.0,0.0,74,0.00,,,0.00,Wunderground v.1.15,2013-05-26 04:40:00,
2013-05-26 00:45:00,43.8,36.0,30.23,ENE,63,0.0,0.0,74,0.00,,,0.00,Wunderground v.1.15,2013-05-26 04:45:00,
2013-05-26 00:54:00,43.5,35.8,30.23,ENE,63,0.0,0.0,74,0.00,,,0.00,Wunderground v.1.15,2013-05-26 04:54:00,
2013-05-26 01:00:00,43.3,35.9,30.23,ENE,63,0.0,0.0,75,0.00,,,0.00,Wunderground v.1.15,2013-05-26 05:00:00,
2013-05-26 01:05:00,43.2,36.1,30.23,ENE,63,0.0,0.0,76,0.00,,,0.00,Wunderground v.1.15,2013-05-26 05:05:00,
2013-05-26 01:15:00,42.9,36.2,30.23,ENE,63,0.0,0.0,77,0.00,,,0.00,Wunderground v.1.15,2013-05-26 05:15:00,
2013-05-26 01:24:00,42.6,36.2,30.23,ENE,63,0.0,0.0,78,0.00,,,0.00,Wunderground v.1.15,2013-05-26 05:24:00,
2013-05-26 01:30:00,42.5,36.4,30.23,ENE,63,0.0,0.0,79,0.00,,,0.00,Wunderground v.1.15,2013-05-26 05:30:00,
2013-05-26 01:40:00,42.3,36.6,30.23,ENE,63,0.0,0.0,80,0.00,,,0.00,Wunderground v.1.15,2013-05-26 05:40:00,
2013-05-26 01:45:00,42.3,36.9,30.23,ENE,63,0.0,0.0,81,0.00,,,0.00,Wunderground v.1.15,2013-05-26 05:45:00,
2013-05-26 01:54:00,42.1,36.7,30.23,ENE,63,0.0,0.0,81,0.00,,,0.00,Wunderground v.1.15,2013-05-26 05:54:00,
2013-05-26 02:00:00,41.9,36.8,30.23,ENE,63,0.0,0.0,82,0.00,,,0.00,Wunderground v.1.15,2013-05-26 06:00:00,
2013-05-26 02:10:00,41.8,37.0,30.23,ENE,63,0.0,0.0,83,0.00,,,0.00,Wunderground v.1.15,2013-05-26 06:10:00,
2013-05-26 02:15:00,41.6,36.8,30.23,ENE,63,0.0,0.0,83,0.00,,,0.00,Wunderground v.1.15,2013-05-26 06:15:00,
2013-05-26 02:24:00,41.6,37.1,30.23,ENE,63,0.0,0.0,84,0.00,,,0.00,Wunderground v.1.15,2013-05-26 06:24:00,
2013-05-26 02:30:00,41.5,37.3,30.23,ENE,63,0.0,0.0,85,0.00,,,0.00,Wunderground v.1.15,2013-05-26 06:30:00,
2013-05-26 02:40:00,41.2,37.0,30.23,ENE,63,0.0,0.0,85,0.00,,,0.00,Wunderground v.1.15,2013-05-26 06:40:00,
2013-05-26 02:45:00,41.2,37.0,30.22,ENE,63,0.0,0.0,85,0.00,,,0.00,Wunderground v.1.15,2013-05-26 06:45:00,
2013-05-26 02:55:00,41.1,36.9,30.22,ENE,63,0.0,0.0,85,0.00,,,0.00,Wunderground v.1.15,2013-05-26 06:55:00,
2013-05-26 03:00:00,40.9,37.0,30.22,ENE,63,0.0,0.0,86,0.00,,,0.00,Wunderground v.1.15,2013-05-26 07:00:00,
2013-05-26 03:10:00,40.9,37.3,30.22,ENE,63,0.0,0.0,87,0.00,,,0.00,Wunderground v.1.15,2013-05-26 07:10:00,
2013-05-26 03:15:00,40.8,37.2,30.22,ENE,63,0.0,0.0,87,0.00,,,0.00,Wunderground v.1.15,2013-05-26 07:15:00,
2013-05-26 03:24:00,40.5,36.9,30.22,ENE,63,0.0,0.0,87,0.00,,,0.00,Wunderground v.1.15,2013-05-26 07:24:00,
2013-05-26 03:30:00,40.3,36.7,30.22,ENE,63,0.0,0.0,87,0.00,,,0.00,Wunderground v.1.15,2013-05-26 07:30:00,
2013-05-26 03:40:00,40.1,36.5,30.22,ENE,63,0.0,0.0,87,0.00,,,0.00,Wunderground v.1.15,2013-05-26 07:40:00,
2013-05-26 03:45:00,40.1,36.5,30.23,ENE,63,0.0,0.0,87,0.00,,,0.00,Wunderground v.1.15,2013-05-26 07:45:00,
2013-05-26 03:54:00,39.9,36.3,30.23,ENE,63,0.0,0.0,87,0.00,,,0.00,Wunderground v.1.15,2013-05-26 07:54:00,
2013-05-26 04:00:00,39.8,36.5,30.22,ENE,63,0.0,0.0,88,0.00,,,0.00,Wunderground v.1.15,2013-05-26 08:00:00,
2013-05-26 04:09:00,39.6,36.3,30.22,ENE,63,0.0,0.0,88,0.00,,,0.00,Wunderground v.1.15,2013-05-26 08:09:00,
2013-05-26 04:15:00,39.6,36.3,30.22,ENE,63,0.0,0.0,88,0.00,,,0.00,Wunderground v.1.15,2013-05-26 08:15:00,
2013-05-26 04:25:00,39.3,36.0,30.22,ENE,63,0.0,0.0,88,0.00,,,0.00,Wunderground v.1.15,2013-05-26 08:25:00,
2013-05-26 04:30:00,39.3,36.0,30.22,ENE,63,0.0,0.0,88,0.00,,,0.00,Wunderground v.1.15,2013-05-26 08:30:00,
2013-05-26 04:39:00,39.2,36.2,30.22,ENE,63,0.0,0.0,89,0.00,,,0.00,Wunderground v.1.15,2013-05-26 08:39:00,
2013-05-26 04:45:00,39.2,36.2,30.23,ENE,63,0.0,0.0,89,0.00,,,0.00,Wunderground v.1.15,2013-05-26 08:45:00,
2013-05-26 04:55:00,39.2,36.2,30.23,ENE,63,0.0,0.0,89,0.00,,,0.00,Wunderground v.1.15,2013-05-26 08:55:00,
2013-05-26 05:00:00,39.1,36.1,30.23,ENE,63,0.0,0.0,89,0.00,,,0.00,Wunderground v.1.15,2013-05-26 09:00:00,
2013-05-26 05:10:00,38.9,35.9,30.23,ENE,63,0.0,0.0,89,0.00,,,0.00,Wunderground v.1.15,2013-05-26 09:10:00,
2013-05-26 05:15:00,38.8,35.8,30.23,ENE,63,0.0,0.0,89,0.00,,,0.00,Wunderground v.1.15,2013-05-26 09:15:00,
2013-05-26 05:25:00,38.5,35.8,30.23,ENE,63,0.0,0.0,90,0.00,,,0.00,Wunderground v.1.15,2013-05-26 09:25:00,
2013-05-26 05:30:00,38.3,35.6,30.23,ENE,63,0.0,0.0,90,0.00,,,0.00,Wunderground v.1.15,2013-05-26 09:30:00,
2013-05-26 05:39:00,38.2,35.5,30.23,ENE,63,0.0,0.0,90,0.00,,,0.00,Wunderground v.1.15,2013-05-26 09:39:00,
2013-05-26 05:45:00,38.2,35.5,30.23,ENE,63,0.0,0.0,90,0.00,,,0.00,Wunderground v.1.15,2013-05-26 09:45:00,
2013-05-26 05:55:00,37.9,35.2,30.23,ENE,63,0.0,0.0,90,0.00,,,0.00,Wunderground v.1.15,2013-05-26 09:55:00,
2013-05-26 06:00:00,37.9,35.2,30.23,ENE,63,0.0,0.0,90,0.00,,,0.00,Wunderground v.1.15,2013-05-26 10:00:00,
2013-05-26 06:10:00,37.8,35.4,30.23,ENE,63,0.0,0.0,91,0.00,,,0.00,Wunderground v.1.15,2013-05-26 10:10:00,
2013-05-26 06:15:00,37.8,35.4,30.24,ENE,63,0.0,0.0,91,0.00,,,0.00,Wunderground v.1.15,2013-05-26 10:15:00,
2013-05-26 06:25:00,37.6,35.2,30.24,ENE,63,0.0,0.0,91,0.00,,,0.00,Wunderground v.1.15,2013-05-26 10:25:00,
2013-05-26 06:30:00,37.6,35.2,30.24,ENE,63,0.0,0.0,91,0.00,,,0.00,Wunderground v.1.15,2013-05-26 10:30:00,
2013-05-26 06:39:00,37.6,35.5,30.24,ENE,63,0.0,0.0,92,0.00,,,0.00,Wunderground v.1.15,2013-05-26 10:39:00,
2013-05-26 06:45:00,37.6,35.5,30.25,ENE,63,0.0,0.0,92,0.00,,,0.00,Wunderground v.1.15,2013-05-26 10:45:00,
2013-05-26 06:55:00,37.9,35.8,30.25,ENE,63,0.0,0.0,92,0.00,,,0.00,Wunderground v.1.15,2013-05-26 10:55:00,
2013-05-26 07:00:00,38.0,35.9,30.25,ENE,63,0.0,0.0,92,0.00,,,0.00,Wunderground v.1.15,2013-05-26 11:00:00,
2013-05-26 07:10:00,38.5,36.7,30.25,ENE,63,0.0,0.0,93,0.00,,,0.00,Wunderground v.1.15,2013-05-26 11:10:00,
2013-05-26 07:15:00,38.8,36.9,30.25,ENE,63,0.0,0.0,93,0.00,,,0.00,Wunderground v.1.15,2013-05-26 11:15:00,
2013-05-26 07:24:00,39.2,37.3,30.25,ENE,63,0.0,0.0,93,0.00,,,0.00,Wunderground v.1.15,2013-05-26 11:24:00,
2013-05-26 07:30:00,39.6,37.7,30.25,ENE,63,0.0,0.0,93,0.00,,,0.00,Wunderground v.1.15,2013-05-26 11:30:00,
2013-05-26 07:39:00,40.2,38.3,30.25,ENE,63,0.0,0.0,93,0.00,,,0.00,Wunderground v.1.15,2013-05-26 11:39:00,
2013-05-26 07:45:00,40.6,38.7,30.25,ENE,63,0.0,0.0,93,0.00,,,0.00,Wunderground v.1.15,2013-05-26 11:45:00,
2013-05-26 07:55:00,41.5,39.6,30.25,ENE,63,0.0,0.0,93,0.00,,,0.00,Wunderground v.1.15,2013-05-26 11:55:00,
2013-05-26 08:00:00,42.1,40.2,30.25,ENE,63,0.0,0.0,93,0.00,,,0.00,Wunderground v.1.15,2013-05-26 12:00:00,
2013-05-26 08:10:00,43.1,40.7,30.25,ENE,63,0.0,0.0,91,0.00,,,0.00,Wunderground v.1.15,2013-05-26 12:10:00,
2013-05-26 08:15:00,43.6,40.9,30.25,ENE,63,0.0,0.0,90,0.00,,,0.00,Wunderground v.1.15,2013-05-26 12:15:00,
2013-05-26 08:24:00,44.6,40.4,30.25,ENE,63,0.0,0.0,85,0.00,,,0.00,Wunderground v.1.15,2013-05-26 12:24:00,
2013-05-26 08:30:00,46.0,39.5,30.25,ENE,63,0.0,0.0,78,0.00,,,0.00,Wunderground v.1.15,2013-05-26 12:30:00,
2013-05-26 08:39:00,47.9,38.6,30.25,NE,38,1.0,1.0,70,0.00,,,0.00,Wunderground v.1.15,2013-05-26 12:39:00,
2013-05-26 08:45:00,48.6,38.5,30.25,NNE,32,1.0,1.0,68,0.00,,,0.00,Wunderground v.1.15,2013-05-26 12:45:00,
2013-05-26 08:55:00,49.6,37.5,30.25,NNE,22,1.0,1.0,63,0.00,,,0.00,Wunderground v.1.15,2013-05-26 12:55:00,
2013-05-26 09:00:00,49.9,33.9,30.25,NE,37,1.0,1.0,54,0.00,,,0.00,Wunderground v.1.15,2013-05-26 13:00:00,
2013-05-26 09:10:00,50.7,33.2,30.25,NNE,30,1.0,1.0,51,0.00,,,0.00,Wunderground v.1.15,2013-05-26 13:10:00,
2013-05-26 09:15:00,51.1,32.1,30.25,NNE,21,1.0,3.0,48,0.00,,,0.00,Wunderground v.1.15,2013-05-26 13:15:00,
2013-05-26 09:24:00,51.6,29.8,30.25,NE,43,2.0,4.0,43,0.00,,,0.00,Wunderground v.1.15,2013-05-26 13:24:00,
2013-05-26 09:30:00,51.9,31.7,30.26,NE,34,2.0,2.0,46,0.00,,,0.00,Wunderground v.1.15,2013-05-26 13:30:00,
2013-05-26 09:40:00,52.3,31.0,30.26,NNE,19,1.0,3.0,44,0.00,,,0.00,Wunderground v.1.15,2013-05-26 13:40:00,
2013-05-26 09:45:00,52.6,30.1,30.27,North,5,2.0,3.0,42,0.00,,,0.00,Wunderground v.1.15,2013-05-26 13:45:00,
2013-05-26 09:54:00,53.1,32.3,30.27,SSE,165,1.0,1.0,45,0.00,,,0.00,Wunderground v.1.15,2013-05-26 13:54:00,
2013-05-26 10:00:00,53.3,32.5,30.27,NNW,338,1.0,1.0,45,0.00,,,0.00,Wunderground v.1.15,2013-05-26 14:00:00,
2013-05-26 10:10:00,53.9,34.1,30.27,NE,37,0.0,0.0,47,0.00,,,0.00,Wunderground v.1.15,2013-05-26 14:10:00,
2013-05-26 10:15:00,54.2,34.4,30.28,NE,36,0.0,1.0,47,0.00,,,0.00,Wunderground v.1.15,2013-05-26 14:15:00,
2013-05-26 10:24:00,54.8,33.8,30.28,NNE,13,0.0,0.0,45,0.00,,,0.00,Wunderground v.1.15,2013-05-26 14:24:00,
2013-05-26 10:30:00,54.8,28.3,30.28,NE,55,1.0,2.0,36,0.00,,,0.00,Wunderground v.1.15,2013-05-26 14:30:00,
2013-05-26 10:40:00,55.4,32.7,30.28,NE,34,1.0,1.0,42,0.00,,,0.00,Wunderground v.1.15,2013-05-26 14:40:00,
2013-05-26 10:45:00,55.7,31.7,30.27,NNE,22,0.0,1.0,40,0.00,,,0.00,Wunderground v.1.15,2013-05-26 14:45:00,
2013-05-26 10:54:00,56.3,33.5,30.27,NW,310,0.0,1.0,42,0.00,,,0.00,Wunderground v.1.15,2013-05-26 14:54:00,
2013-05-26 11:00:00,56.7,35.6,30.26,NW,310,0.0,1.0,45,0.00,,,0.00,Wunderground v.1.15,2013-05-26 15:00:00,
2013-05-26 11:09:00,57.5,30.0,30.26,ENE,65,1.0,1.0,35,0.00,,,0.00,Wunderground v.1.15,2013-05-26 15:09:00,
2013-05-26 11:15:00,58.4,35.4,30.27,WSW,251,1.0,1.0,42,0.00,,,0.00,Wunderground v.1.15,2013-05-26 15:15:00,
2013-05-26 11:25:00,58.9,34.0,30.27,South,180,0.0,0.0,39,0.00,,,0.00,Wunderground v.1.15,2013-05-26 15:25:00,
2013-05-26 11:30:00,59.2,31.5,30.27,ENE,60,0.0,0.0,35,0.00,,,0.00,Wunderground v.1.15,2013-05-26 15:30:00,
2013-05-26 11:40:00,59.6,35.2,30.27,NE,45,1.0,1.0,40,0.00,,,0.00,Wunderground v.1.15,2013-05-26 15:40:00,
2013-05-26 11:45:00,59.8,29.9,30.27,North,9,1.0,1.0,32,0.00,,,0.00,Wunderground v.1.15,2013-05-26 15:45:00,
2013-05-26 11:55:00,59.5,32.5,30.27,SSW,205,1.0,1.0,36,0.00,,,0.00,Wunderground v.1.15,2013-05-26 15:55:00,
2013-05-26 12:00:00,60.1,30.1,30.25,SW,234,1.0,1.0,32,0.00,,,0.00,Wunderground v.1.15,2013-05-26 16:00:00,
2013-05-26 12:05:00,60.1,26.9,30.25,NE,46,1.0,2.0,28,0.00,,,0.00,Wunderground v.1.15,2013-05-26 16:05:00,
2013-05-26 12:15:00,59.9,32.2,30.25,NE,35,1.0,5.0,35,0.00,,,0.00,Wunderground v.1.15,2013-05-26 16:15:00,
2013-05-26 12:24:00,60.5,35.4,30.25,SSW,200,1.0,2.0,39,0.00,,,0.00,Wunderground v.1.15,2013-05-26 16:24:00,
2013-05-26 12:30:00,61.2,29.5,30.25,NE,41,0.0,0.0,30,0.00,,,0.00,Wunderground v.1.15,2013-05-26 16:30:00,
2013-05-26 12:40:00,61.6,37.0,30.25,NNE,30,0.0,0.0,40,0.00,,,0.00,Wunderground v.1.15,2013-05-26 16:40:00,
2013-05-26 12:45:00,62.0,29.3,30.25,NE,47,1.0,1.0,29,0.00,,,0.00,Wunderground v.1.15,2013-05-26 16:45:00,
2013-05-26 12:55:00,62.4,29.7,30.25,NNE,27,1.0,1.0,29,0.00,,,0.00,Wunderground v.1.15,2013-05-26 16:55:00,
2013-05-26 13:00:00,61.6,28.1,30.25,ENE,63,2.0,2.0,28,0.00,,,0.00,Wunderground v.1.15,2013-05-26 17:00:00,
2013-05-26 13:10:00,62.0,28.5,30.25,NE,40,1.0,2.0,28,0.00,,,0.00,Wunderground v.1.15,2013-05-26 17:10:00,
2013-05-26 13:15:00,62.4,32.1,30.25,SSE,147,0.0,2.0,32,0.00,,,0.00,Wunderground v.1.15,2013-05-26 17:15:00,
2013-05-26 13:25:00,62.4,35.1,30.25,SSE,166,1.0,1.0,36,0.00,,,0.00,Wunderground v.1.15,2013-05-26 17:25:00,
2013-05-26 13:30:00,63.1,35.0,30.25,East,81,0.0,1.0,35,0.00,,,0.00,Wunderground v.1.15,2013-05-26 17:30:00,
2013-05-26 13:39:00,63.2,35.8,30.25,NE,52,2.0,2.0,36,0.00,,,0.00,Wunderground v.1.15,2013-05-26 17:39:00,
2013-05-26 13:45:00,64.2,41.8,30.25,NE,52,1.0,2.0,44,0.00,,,0.00,Wunderground v.1.15,2013-05-26 17:45:00,
2013-05-26 13:55:00,64.3,33.0,30.25,NNE,17,1.0,1.0,31,0.00,,,0.00,Wunderground v.1.15,2013-05-26 17:55:00,
2013-05-26 14:00:00,64.7,34.9,30.24,SE,137,0.0,1.0,33,0.00,,,0.00,Wunderground v.1.15,2013-05-26 18:00:00,
2013-05-26 14:10:00,64.8,34.2,30.24,NE,42,1.0,1.0,32,0.00,,,0.00,Wunderground v.1.15,2013-05-26 18:10:00,
2013-05-26 14:15:00,65.0,33.6,30.23,North,5,1.0,2.0,31,0.00,,,0.00,Wunderground v.1.15,2013-05-26 18:15:00,
2013-05-26 14:24:00,65.0,30.2,30.23,ENE,60,2.0,2.0,27,0.00,,,0.00,Wunderground v.1.15,2013-05-26 18:24:00,
2013-05-26 14:30:00,65.0,30.2,30.23,East,97,2.0,2.0,27,0.00,,,0.00,Wunderground v.1.15,2013-05-26 18:30:00,
2013-05-26 14:40:00,65.2,34.6,30.23,South,178,1.0,2.0,32,0.00,,,0.00,Wunderground v.1.15,2013-05-26 18:40:00,
2013-05-26 14:45:00,65.2,36.8,30.23,SSW,199,1.0,2.0,35,0.00,,,0.00,Wunderground v.1.15,2013-05-26 18:45:00,
2013-05-26 14:55:00,65.6,31.6,30.23,NE,38,1.0,2.0,28,0.00,,,0.00,Wunderground v.1.15,2013-05-26 18:55:00,
2013-05-26 15:00:00,66.4,34.8,30.22,SW,234,1.0,2.0,31,0.00,,,0.00,Wunderground v.1.15,2013-05-26 19:00:00,
2013-05-26 15:10:00,66.4,30.4,30.22,NNE,19,1.0,2.0,26,0.00,,,0.00,Wunderground v.1.15,2013-05-26 19:10:00,
2013-05-26 15:15:00,66.4,34.8,30.22,SSW,195,1.0,2.0,31,0.00,,,0.00,Wunderground v.1.15,2013-05-26 19:15:00,
2013-05-26 15:25:00,66.1,32.0,30.22,NNE,17,1.0,1.0,28,0.00,,,0.00,Wunderground v.1.15,2013-05-26 19:25:00,
2013-05-26 15:30:00,66.3,32.2,30.21,West,262,1.0,1.0,28,0.00,,,0.00,Wunderground v.1.15,2013-05-26 19:30:00,
2013-05-26 15:40:00,66.9,31.8,30.21,South,180,0.0,0.0,27,0.00,,,0.00,Wunderground v.1.15,2013-05-26 19:40:00,
2013-05-26 15:45:00,66.9,33.6,30.21,ENE,68,0.0,0.0,29,0.00,,,0.00,Wunderground v.1.15,2013-05-26 19:45:00,
2013-05-26 15:54:00,66.3,35.5,30.21,NNE,24,1.0,1.0,32,0.00,,,0.00,Wunderground v.1.15,2013-05-26 19:54:00,
2013-05-26 16:00:00,66.4,36.4,30.20,NE,36,1.0,1.0,33,0.00,,,0.00,Wunderground v.1.15,2013-05-26 20:00:00,
2013-05-26 16:10:00,66.8,37.5,30.20,WSW,238,0.0,0.0,34,0.00,,,0.00,Wunderground v.1.15,2013-05-26 20:10:00,
2013-05-26 16:15:00,66.8,31.7,30.20,North,355,1.0,1.0,27,0.00,,,0.00,Wunderground v.1.15,2013-05-26 20:15:00,
2013-05-26 16:25:00,67.1,37.0,30.20,NE,34,0.0,1.0,33,0.00,,,0.00,Wunderground v.1.15,2013-05-26 20:25:00,
2013-05-26 16:30:00,66.9,31.8,30.20,NNE,25,1.0,1.0,27,0.00,,,0.00,Wunderground v.1.15,2013-05-26 20:30:00,
2013-05-26 16:40:00,66.8,35.2,30.20,NNE,25,0.0,0.0,31,0.00,,,0.00,Wunderground v.1.15,2013-05-26 20:40:00,
2013-05-26 16:45:00,67.4,38.8,30.20,NNE,25,0.0,0.0,35,0.00,,,0.00,Wunderground v.1.15,2013-05-26 20:45:00,
2013-05-26 16:55:00,67.9,33.6,30.20,NE,34,0.0,2.0,28,0.00,,,0.00,Wunderground v.1.15,2013-05-26 20:55:00,
2013-05-26 17:00:00,67.6,33.3,30.19,NE,45,0.0,0.0,28,0.00,,,0.00,Wunderground v.1.15,2013-05-26 21:00:00,
2013-05-26 17:09:00,67.8,36.0,30.19,NE,48,0.0,3.0,31,0.00,,,0.00,Wunderground v.1.15,2013-05-26 21:09:00,
2013-05-26 17:15:00,67.6,35.0,30.19,NE,48,1.0,3.0,30,0.00,,,0.00,Wunderground v.1.15,2013-05-26 21:15:00,
2013-05-26 17:25:00,67.3,35.6,30.19,NE,44,1.0,1.0,31,0.00,,,0.00,Wunderground v.1.15,2013-05-26 21:25:00,
2013-05-26 17:30:00,67.8,34.4,30.19,NE,38,0.0,0.0,29,0.00,,,0.00,Wunderground v.1.15,2013-05-26 21:30:00,
2013-05-26 17:39:00,68.3,36.5,30.19,North,355,0.0,0.0,31,0.00,,,0.00,Wunderground v.1.15,2013-05-26 21:39:00,
2013-05-26 17:45:00,68.1,31.9,30.18,NNE,23,1.0,1.0,26,0.00,,,0.00,Wunderground v.1.15,2013-05-26 21:45:00,
2013-05-26 17:55:00,68.3,32.1,30.18,West,275,0.0,1.0,26,0.00,,,0.00,Wunderground v.1.15,2013-05-26 21:55:00,
2013-05-26 18:00:00,68.1,32.8,30.19,West,275,0.0,0.0,27,0.00,,,0.00,Wunderground v.1.15,2013-05-26 22:00:00,
2013-05-26 18:10:00,67.9,32.7,30.19,West,275,0.0,0.0,27,0.00,,,0.00,Wunderground v.1.15,2013-05-26 22:10:00,
2013-05-26 18:15:00,67.3,32.1,30.19,NNW,333,1.0,1.0,27,0.00,,,0.00,Wunderground v.1.15,2013-05-26 22:15:00,
2013-05-26 18:25:00,66.6,30.6,30.19,SW,227,0.0,1.0,26,0.00,,,0.00,Wunderground v.1.15,2013-05-26 22:25:00,
2013-05-26 18:30:00,66.6,32.5,30.18,NE,38,0.0,0.0,28,0.00,,,0.00,Wunderground v.1.15,2013-05-26 22:30:00,
2013-05-26 18:40:00,66.1,30.2,30.18,ENE,63,0.0,0.0,26,0.00,,,0.00,Wunderground v.1.15,2013-05-26 22:40:00,
2013-05-26 18:45:00,66.0,31.0,30.18,ENE,63,0.0,0.0,27,0.00,,,0.00,Wunderground v.1.15,2013-05-26 22:45:00,
2013-05-26 18:55:00,65.0,33.6,30.18,ENE,63,0.0,0.0,31,0.00,,,0.00,Wunderground v.1.15,2013-05-26 22:55:00,
2013-05-26 19:00:00,64.5,34.0,30.17,ENE,63,0.0,0.0,32,0.00,,,0.00,Wunderground v.1.15,2013-05-26 23:00:00,
2013-05-26 19:10:00,63.7,36.9,30.17,ENE,63,0.0,0.0,37,0.00,,,0.00,Wunderground v.1.15,2013-05-26 23:10:00,
2013-05-26 19:15:00,63.5,36.7,30.17,ENE,63,0.0,0.0,37,0.00,,,0.00,Wunderground v.1.15,2013-05-26 23:15:00,
2013-05-26 19:25:00,63.1,37.7,30.17,ENE,63,0.0,0.0,39,0.00,,,0.00,Wunderground v.1.15,2013-05-26 23:25:00,
2013-05-26 19:30:00,62.6,39.2,30.17,ENE,63,0.0,0.0,42,0.00,,,0.00,Wunderground v.1.15,2013-05-26 23:30:00,
2013-05-26 19:40:00,61.6,39.5,30.17,ENE,63,0.0,0.0,44,0.00,,,0.00,Wunderground v.1.15,2013-05-26 23:40:00,
2013-05-26 19:45:00,61.0,38.9,30.17,ENE,63,0.0,0.0,44,0.00,,,0.00,Wunderground v.1.15,2013-05-26 23:45:00,
2013-05-26 19:54:00,59.9,39.6,30.17,ENE,63,0.0,0.0,47,0.00,,,0.00,Wunderground v.1.15,2013-05-26 23:54:00,
2013-05-26 20:00:00,59.5,40.8,30.16,ENE,63,0.0,0.0,50,0.00,,,0.00,Wunderground v.1.15,2013-05-27 00:00:00,
2013-05-26 20:09:00,58.7,38.5,30.16,ENE,63,0.0,0.0,47,0.00,,,0.00,Wunderground v.1.15,2013-05-27 00:09:00,
2013-05-26 20:15:00,58.6,38.4,30.16,ENE,63,0.0,0.0,47,0.00,,,0.00,Wunderground v.1.15,2013-05-27 00:15:00,
2013-05-26 20:25:00,58.4,38.2,30.16,ENE,63,0.0,0.0,47,0.00,,,0.00,Wunderground v.1.15,2013-05-27 00:25:00,
2013-05-26 20:30:00,58.3,40.2,30.16,ENE,63,0.0,0.0,51,0.00,,,0.00,Wunderground v.1.15,2013-05-27 00:30:00,
2013-05-26 20:40:00,57.8,40.8,30.16,ENE,63,0.0,0.0,53,0.00,,,0.00,Wunderground v.1.15,2013-05-27 00:40:00,
2013-05-26 20:45:00,57.5,41.9,30.16,ENE,63,0.0,0.0,56,0.00,,,0.00,Wunderground v.1.15,2013-05-27 00:45:00,
2013-05-26 20:55:00,56.5,39.6,30.16,ENE,63,0.0,0.0,53,0.00,,,0.00,Wunderground v.1.15,2013-05-27 00:55:00,
2013-05-26 21:00:00,56.0,39.1,30.16,ENE,63,0.0,0.0,53,0.00,,,0.00,Wunderground v.1.15,2013-05-27 01:00:00,
2013-05-26 21:09:00,55.0,37.7,30.16,ENE,63,0.0,0.0,52,0.00,,,0.00,Wunderground v.1.15,2013-05-27 01:09:00,
2013-05-26 21:15:00,54.4,38.1,30.16,ENE,63,0.0,0.0,54,0.00,,,0.00,Wunderground v.1.15,2013-05-27 01:15:00,
2013-05-26 21:25:00,53.8,38.9,30.16,ENE,63,0.0,0.0,57,0.00,,,0.00,Wunderground v.1.15,2013-05-27 01:25:00,
2013-05-26 21:30:00,53.3,37.5,30.17,ENE,63,0.0,0.0,55,0.00,,,0.00,Wunderground v.1.15,2013-05-27 01:30:00,
2013-05-26 21:39:00,52.6,38.7,30.17,ENE,63,0.0,0.0,59,0.00,,,0.00,Wunderground v.1.15,2013-05-27 01:39:00,
2013-05-26 21:45:00,52.3,40.1,30.17,ENE,63,0.0,0.0,63,0.00,,,0.00,Wunderground v.1.15,2013-05-27 01:45:00,
2013-05-26 21:54:00,51.9,40.1,30.17,ENE,63,0.0,0.0,64,0.00,,,0.00,Wunderground v.1.15,2013-05-27 01:54:00,
2013-05-26 22:00:00,51.6,40.2,30.17,ENE,64,0.0,0.0,65,0.00,,,0.00,Wunderground v.1.15,2013-05-27 02:00:00,
2013-05-26 22:10:00,51.0,40.0,30.17,ENE,63,0.0,0.0,66,0.00,,,0.00,Wunderground v.1.15,2013-05-27 02:10:00,
2013-05-26 22:15:00,50.7,40.1,30.17,ENE,63,0.0,0.0,67,0.00,,,0.00,Wunderground v.1.15,2013-05-27 02:15:00,
2013-05-26 22:25:00,50.1,38.8,30.17,ENE,63,0.0,0.0,65,0.00,,,0.00,Wunderground v.1.15,2013-05-27 02:25:00,
2013-05-26 22:30:00,49.8,38.9,30.18,ENE,63,0.0,0.0,66,0.00,,,0.00,Wunderground v.1.15,2013-05-27 02:30:00,
2013-05-26 22:39:00,49.4,39.3,30.18,ENE,63,0.0,0.0,68,0.00,,,0.00,Wunderground v.1.15,2013-05-27 02:39:00,
2013-05-26 22:45:00,49.1,39.0,30.18,ENE,63,0.0,0.0,68,0.00,,,0.00,Wunderground v.1.15,2013-05-27 02:45:00,
2013-05-26 22:55:00,48.6,39.3,30.18,ENE,63,0.0,0.0,70,0.00,,,0.00,Wunderground v.1.15,2013-05-27 02:55:00,
2013-05-26 23:00:00,48.5,40.2,30.18,ENE,63,0.0,0.0,73,0.00,,,0.00,Wunderground v.1.15,2013-05-27 03:00:00,
2013-05-26 23:09:00,47.9,40.4,30.18,ENE,63,0.0,0.0,75,0.00,,,0.00,Wunderground v.1.15,2013-05-27 03:09:00,
2013-05-26 23:15:00,47.7,40.5,30.18,ENE,63,0.0,0.0,76,0.00,,,0.00,Wunderground v.1.15,2013-05-27 03:15:00,
2013-05-26 23:25:00,47.6,40.7,30.18,ENE,63,0.0,0.0,77,0.00,,,0.00,Wunderground v.1.15,2013-05-27 03:25:00,
2013-05-26 23:30:00,47.3,40.8,30.19,ENE,63,0.0,0.0,78,0.00,,,0.00,Wunderground v.1.15,2013-05-27 03:30:00,
2013-05-26 23:40:00,47.0,40.8,30.19,ENE,63,0.0,0.0,79,0.00,,,0.00,Wunderground v.1.15,2013-05-27 03:40:00,
2013-05-26 23:45:00,46.8,41.0,30.19,ENE,63,0.0,0.0,80,0.00,,,0.00,Wunderground v.1.15,2013-05-27 03:45:00,
2013-05-26 23:55:00,46.5,40.7,30.19,ENE,63,0.0,0.0,80,0.00,,,0.00,Wunderground v.1.15,2013-05-27 03:55:00,